sensor_id;sensor_type;location;lat;lon;timestamp;temperature;humidity
51557;DHT22;38766;53.194;5.532;2022-07-18T00:01:49;19.20;99.90
51557;DHT22;38766;53.194;5.532;2022-07-18T00:04:14;19.10;99.90
51557;DHT22;38766;53.194;5.532;2022-07-18T00:06:40;19.10;99.90
51557;DHT22;38766;53.194;5.532;2022-07-18T00:09:06;19.10;99.90
51557;DHT22;38766;53.194;5.532;2022-07-18T00:11:31;19.00;99.90
51557;DHT22;38766;53.194;5.532;2022-07-18T00:13:57;19.00;99.90
51557;DHT22;38766;53.194;5.532;2022-07-18T00:16:23;19.00;99.90
51557;DHT22;38766;53.194;5.532;2022-07-18T00:18:49;19.00;99.90
51557;DHT22;38766;53.194;5.532;2022-07-18T00:21:15;19.00;99.90
51557;DHT22;38766;53.194;5.532;2022-07-18T00:23:40;19.10;99.90
51557;DHT22;38766;53.194;5.532;2022-07-18T00:26:06;19.10;99.90
51557;DHT22;38766;53.194;5.532;2022-07-18T00:28:32;19.10;99.90
51557;DHT22;38766;53.194;5.532;2022-07-18T00:30:57;19.10;99.90
51557;DHT22;38766;53.194;5.532;2022-07-18T00:33:23;19.00;99.90
51557;DHT22;38766;53.194;5.532;2022-07-18T00:35:49;19.00;99.90
51557;DHT22;38766;53.194;5.532;2022-07-18T00:38:15;19.00;99.90
51557;DHT22;38766;53.194;5.532;2022-07-18T00:40:41;19.00;99.90
51557;DHT22;38766;53.194;5.532;2022-07-18T00:43:07;19.00;99.90
51557;DHT22;38766;53.194;5.532;2022-07-18T00:45:33;19.00;99.90
51557;DHT22;38766;53.194;5.532;2022-07-18T00:47:58;19.00;99.90
51557;DHT22;38766;53.194;5.532;2022-07-18T00:50:24;18.90;99.90
51557;DHT22;38766;53.194;5.532;2022-07-18T00:52:50;18.90;99.90
51557;DHT22;38766;53.194;5.532;2022-07-18T00:55:16;18.80;99.90
51557;DHT22;38766;53.194;5.532;2022-07-18T00:57:42;18.90;99.90
51557;DHT22;38766;53.194;5.532;2022-07-18T01:00:10;18.80;99.90
51557;DHT22;38766;53.194;5.532;2022-07-18T01:02:55;18.80;99.90
51557;DHT22;38766;53.194;5.532;2022-07-18T01:05:21;18.80;99.90
51557;DHT22;38766;53.194;5.532;2022-07-18T01:07:47;18.70;99.90
51557;DHT22;38766;53.194;5.532;2022-07-18T01:10:13;18.70;99.90
51557;DHT22;38766;53.194;5.532;2022-07-18T01:12:38;18.70;99.90
51557;DHT22;38766;53.194;5.532;2022-07-18T01:15:05;18.70;99.90
51557;DHT22;38766;53.194;5.532;2022-07-18T01:17:31;18.70;99.90
51557;DHT22;38766;53.194;5.532;2022-07-18T01:19:57;18.60;99.90
51557;DHT22;38766;53.194;5.532;2022-07-18T01:22:23;18.70;99.90
51557;DHT22;38766;53.194;5.532;2022-07-18T01:24:49;18.60;99.90
51557;DHT22;38766;53.194;5.532;2022-07-18T01:27:19;18.60;99.90
51557;DHT22;38766;53.194;5.532;2022-07-18T01:29:47;18.50;99.90
51557;DHT22;38766;53.194;5.532;2022-07-18T01:32:14;18.50;99.90
51557;DHT22;38766;53.194;5.532;2022-07-18T01:34:41;18.60;99.90
51557;DHT22;38766;53.194;5.532;2022-07-18T01:37:07;18.60;99.90
51557;DHT22;38766;53.194;5.532;2022-07-18T01:39:34;18.60;99.90
51557;DHT22;38766;53.194;5.532;2022-07-18T01:42:01;18.60;99.90
51557;DHT22;38766;53.194;5.532;2022-07-18T01:44:28;18.60;99.90
51557;DHT22;38766;53.194;5.532;2022-07-18T01:46:54;18.60;99.90
51557;DHT22;38766;53.194;5.532;2022-07-18T01:49:23;18.60;99.90
51557;DHT22;38766;53.194;5.532;2022-07-18T01:51:51;18.50;99.90
51557;DHT22;38766;53.194;5.532;2022-07-18T01:54:23;18.50;99.90
51557;DHT22;38766;53.194;5.532;2022-07-18T01:56:49;18.50;99.90
51557;DHT22;38766;53.194;5.532;2022-07-18T01:59:14;18.40;99.90
51557;DHT22;38766;53.194;5.532;2022-07-18T02:01:40;18.40;99.90
51557;DHT22;38766;53.194;5.532;2022-07-18T02:04:06;18.40;99.90
51557;DHT22;38766;53.194;5.532;2022-07-18T02:06:31;18.30;99.90
51557;DHT22;38766;53.194;5.532;2022-07-18T02:08:57;18.30;99.90
51557;DHT22;38766;53.194;5.532;2022-07-18T02:11:23;18.20;99.90
51557;DHT22;38766;53.194;5.532;2022-07-18T02:13:49;18.20;99.90
51557;DHT22;38766;53.194;5.532;2022-07-18T02:16:15;18.10;99.90
51557;DHT22;38766;53.194;5.532;2022-07-18T02:18:41;18.10;99.90
51557;DHT22;38766;53.194;5.532;2022-07-18T02:21:07;18.20;99.90
51557;DHT22;38766;53.194;5.532;2022-07-18T02:23:33;18.20;99.90
51557;DHT22;38766;53.194;5.532;2022-07-18T02:25:59;18.10;99.90
51557;DHT22;38766;53.194;5.532;2022-07-18T02:28:25;18.00;99.90
51557;DHT22;38766;53.194;5.532;2022-07-18T02:30:51;18.00;99.90
51557;DHT22;38766;53.194;5.532;2022-07-18T02:33:16;18.10;99.90
51557;DHT22;38766;53.194;5.532;2022-07-18T02:35:43;18.10;99.90
51557;DHT22;38766;53.194;5.532;2022-07-18T02:38:09;18.10;99.90
51557;DHT22;38766;53.194;5.532;2022-07-18T02:40:35;18.10;99.90
51557;DHT22;38766;53.194;5.532;2022-07-18T02:43:01;18.10;99.90
51557;DHT22;38766;53.194;5.532;2022-07-18T02:45:27;18.10;99.90
51557;DHT22;38766;53.194;5.532;2022-07-18T02:47:53;18.10;99.90
51557;DHT22;38766;53.194;5.532;2022-07-18T02:50:18;18.00;99.90
51557;DHT22;38766;53.194;5.532;2022-07-18T02:52:44;18.00;99.90
51557;DHT22;38766;53.194;5.532;2022-07-18T02:55:11;18.00;99.90
51557;DHT22;38766;53.194;5.532;2022-07-18T02:57:38;18.00;99.90
51557;DHT22;38766;53.194;5.532;2022-07-18T03:00:06;17.90;99.90
51557;DHT22;38766;53.194;5.532;2022-07-18T03:02:32;17.90;99.90
51557;DHT22;38766;53.194;5.532;2022-07-18T03:04:58;17.90;99.90
51557;DHT22;38766;53.194;5.532;2022-07-18T03:07:23;17.90;99.90
51557;DHT22;38766;53.194;5.532;2022-07-18T03:09:49;17.80;99.90
51557;DHT22;38766;53.194;5.532;2022-07-18T03:12:14;17.80;99.90
51557;DHT22;38766;53.194;5.532;2022-07-18T03:14:40;17.80;99.90
51557;DHT22;38766;53.194;5.532;2022-07-18T03:17:06;17.70;99.90
51557;DHT22;38766;53.194;5.532;2022-07-18T03:19:31;17.70;99.90
51557;DHT22;38766;53.194;5.532;2022-07-18T03:21:58;17.70;99.90
51557;DHT22;38766;53.194;5.532;2022-07-18T03:24:23;17.60;99.90
51557;DHT22;38766;53.194;5.532;2022-07-18T03:26:49;17.60;99.90
51557;DHT22;38766;53.194;5.532;2022-07-18T03:29:15;17.60;99.90
51557;DHT22;38766;53.194;5.532;2022-07-18T03:31:40;17.50;99.90
51557;DHT22;38766;53.194;5.532;2022-07-18T03:34:06;17.50;99.90
51557;DHT22;38766;53.194;5.532;2022-07-18T03:36:32;17.50;99.90
51557;DHT22;38766;53.194;5.532;2022-07-18T03:38:58;17.50;99.90
51557;DHT22;38766;53.194;5.532;2022-07-18T03:41:23;17.50;99.90
51557;DHT22;38766;53.194;5.532;2022-07-18T03:43:49;17.40;99.90
51557;DHT22;38766;53.194;5.532;2022-07-18T03:46:14;17.40;99.90
51557;DHT22;38766;53.194;5.532;2022-07-18T03:48:40;17.40;99.90
51557;DHT22;38766;53.194;5.532;2022-07-18T03:51:06;17.40;99.90
51557;DHT22;38766;53.194;5.532;2022-07-18T03:53:32;17.40;99.90
51557;DHT22;38766;53.194;5.532;2022-07-18T03:55:58;17.40;99.90
51557;DHT22;38766;53.194;5.532;2022-07-18T03:58:24;17.40;99.90
51557;DHT22;38766;53.194;5.532;2022-07-18T04:00:50;17.30;99.90
51557;DHT22;38766;53.194;5.532;2022-07-18T04:03:16;17.30;99.90
51557;DHT22;38766;53.194;5.532;2022-07-18T04:05:41;17.40;99.90
51557;DHT22;38766;53.194;5.532;2022-07-18T04:08:07;17.40;99.90
51557;DHT22;38766;53.194;5.532;2022-07-18T04:10:33;17.40;99.90
51557;DHT22;38766;53.194;5.532;2022-07-18T04:12:59;17.30;99.90
51557;DHT22;38766;53.194;5.532;2022-07-18T04:15:25;17.30;99.90
51557;DHT22;38766;53.194;5.532;2022-07-18T04:17:52;17.30;99.90
51557;DHT22;38766;53.194;5.532;2022-07-18T04:20:19;17.40;99.90
51557;DHT22;38766;53.194;5.532;2022-07-18T04:22:51;17.30;99.90
51557;DHT22;38766;53.194;5.532;2022-07-18T04:25:19;17.40;99.90
51557;DHT22;38766;53.194;5.532;2022-07-18T04:27:45;17.40;99.90
51557;DHT22;38766;53.194;5.532;2022-07-18T04:30:12;17.40;99.90
51557;DHT22;38766;53.194;5.532;2022-07-18T04:32:38;17.40;99.90
51557;DHT22;38766;53.194;5.532;2022-07-18T04:35:05;17.40;99.90
51557;DHT22;38766;53.194;5.532;2022-07-18T04:37:31;17.40;99.90
51557;DHT22;38766;53.194;5.532;2022-07-18T04:39:58;17.40;99.90
51557;DHT22;38766;53.194;5.532;2022-07-18T04:42:23;17.40;99.90
51557;DHT22;38766;53.194;5.532;2022-07-18T04:44:49;17.40;99.90
51557;DHT22;38766;53.194;5.532;2022-07-18T04:47:15;17.40;99.90
51557;DHT22;38766;53.194;5.532;2022-07-18T04:49:40;17.40;99.90
51557;DHT22;38766;53.194;5.532;2022-07-18T04:52:06;17.50;99.90
51557;DHT22;38766;53.194;5.532;2022-07-18T04:54:31;17.50;99.90
51557;DHT22;38766;53.194;5.532;2022-07-18T04:56:57;17.50;99.90
51557;DHT22;38766;53.194;5.532;2022-07-18T04:59:23;17.50;99.90
51557;DHT22;38766;53.194;5.532;2022-07-18T05:01:48;17.50;99.90
51557;DHT22;38766;53.194;5.532;2022-07-18T05:04:14;17.50;99.90
51557;DHT22;38766;53.194;5.532;2022-07-18T05:06:39;17.50;99.90
51557;DHT22;38766;53.194;5.532;2022-07-18T05:09:05;17.50;99.90
51557;DHT22;38766;53.194;5.532;2022-07-18T05:11:30;17.50;99.90
51557;DHT22;38766;53.194;5.532;2022-07-18T05:13:56;17.50;99.90
51557;DHT22;38766;53.194;5.532;2022-07-18T05:16:22;17.50;99.90
51557;DHT22;38766;53.194;5.532;2022-07-18T05:18:47;17.50;99.90
51557;DHT22;38766;53.194;5.532;2022-07-18T05:21:13;17.50;99.90
51557;DHT22;38766;53.194;5.532;2022-07-18T05:23:39;17.50;99.90
51557;DHT22;38766;53.194;5.532;2022-07-18T05:26:04;17.50;99.90
51557;DHT22;38766;53.194;5.532;2022-07-18T05:28:30;17.50;99.90
51557;DHT22;38766;53.194;5.532;2022-07-18T05:30:56;17.50;99.90
51557;DHT22;38766;53.194;5.532;2022-07-18T05:33:21;17.60;99.90
51557;DHT22;38766;53.194;5.532;2022-07-18T05:35:47;17.60;99.90
51557;DHT22;38766;53.194;5.532;2022-07-18T05:38:13;17.70;99.90
51557;DHT22;38766;53.194;5.532;2022-07-18T05:40:38;17.60;99.90
51557;DHT22;38766;53.194;5.532;2022-07-18T05:43:04;17.70;99.90
51557;DHT22;38766;53.194;5.532;2022-07-18T05:45:30;17.70;99.90
51557;DHT22;38766;53.194;5.532;2022-07-18T05:47:55;17.70;99.90
51557;DHT22;38766;53.194;5.532;2022-07-18T05:50:23;17.80;99.90
51557;DHT22;38766;53.194;5.532;2022-07-18T05:52:49;17.80;99.90
51557;DHT22;38766;53.194;5.532;2022-07-18T05:55:15;17.80;99.90
51557;DHT22;38766;53.194;5.532;2022-07-18T05:57:41;17.90;99.90
51557;DHT22;38766;53.194;5.532;2022-07-18T06:00:08;17.90;99.90
51557;DHT22;38766;53.194;5.532;2022-07-18T06:02:34;17.90;99.90
51557;DHT22;38766;53.194;5.532;2022-07-18T06:05:00;18.00;99.90
51557;DHT22;38766;53.194;5.532;2022-07-18T06:07:26;18.00;99.90
51557;DHT22;38766;53.194;5.532;2022-07-18T06:09:51;18.10;99.90
51557;DHT22;38766;53.194;5.532;2022-07-18T06:12:17;18.10;99.90
51557;DHT22;38766;53.194;5.532;2022-07-18T06:14:43;18.10;99.90
51557;DHT22;38766;53.194;5.532;2022-07-18T06:17:09;18.20;99.90
51557;DHT22;38766;53.194;5.532;2022-07-18T06:19:34;18.30;99.90
51557;DHT22;38766;53.194;5.532;2022-07-18T06:22:00;18.30;99.90
51557;DHT22;38766;53.194;5.532;2022-07-18T06:24:27;18.40;99.90
51557;DHT22;38766;53.194;5.532;2022-07-18T06:26:52;18.50;99.90
51557;DHT22;38766;53.194;5.532;2022-07-18T06:29:18;18.60;99.90
51557;DHT22;38766;53.194;5.532;2022-07-18T06:31:44;18.60;99.90
51557;DHT22;38766;53.194;5.532;2022-07-18T06:34:09;18.60;99.90
51557;DHT22;38766;53.194;5.532;2022-07-18T06:36:35;18.70;99.90
51557;DHT22;38766;53.194;5.532;2022-07-18T06:39:01;18.80;99.90
51557;DHT22;38766;53.194;5.532;2022-07-18T06:41:33;18.80;99.90
51557;DHT22;38766;53.194;5.532;2022-07-18T06:43:59;18.90;99.90
51557;DHT22;38766;53.194;5.532;2022-07-18T06:46:25;18.90;99.90
51557;DHT22;38766;53.194;5.532;2022-07-18T06:48:50;19.00;99.90
51557;DHT22;38766;53.194;5.532;2022-07-18T06:51:16;19.00;99.90
51557;DHT22;38766;53.194;5.532;2022-07-18T06:53:42;19.00;99.90
51557;DHT22;38766;53.194;5.532;2022-07-18T06:56:07;19.10;99.90
51557;DHT22;38766;53.194;5.532;2022-07-18T06:58:33;19.10;99.90
51557;DHT22;38766;53.194;5.532;2022-07-18T07:00:59;19.20;99.90
51557;DHT22;38766;53.194;5.532;2022-07-18T07:03:25;19.30;99.90
51557;DHT22;38766;53.194;5.532;2022-07-18T07:05:50;19.40;99.90
51557;DHT22;38766;53.194;5.532;2022-07-18T07:08:16;19.50;99.90
51557;DHT22;38766;53.194;5.532;2022-07-18T07:10:42;19.60;99.90
51557;DHT22;38766;53.194;5.532;2022-07-18T07:13:07;19.70;99.90
51557;DHT22;38766;53.194;5.532;2022-07-18T07:15:33;20.00;99.90
51557;DHT22;38766;53.194;5.532;2022-07-18T07:17:59;20.30;99.90
51557;DHT22;38766;53.194;5.532;2022-07-18T07:20:25;20.50;99.90
51557;DHT22;38766;53.194;5.532;2022-07-18T07:22:55;20.70;99.90
51557;DHT22;38766;53.194;5.532;2022-07-18T07:25:24;20.80;99.90
51557;DHT22;38766;53.194;5.532;2022-07-18T07:27:50;20.90;99.90
51557;DHT22;38766;53.194;5.532;2022-07-18T07:30:16;20.90;99.90
51557;DHT22;38766;53.194;5.532;2022-07-18T07:32:43;21.00;99.90
51557;DHT22;38766;53.194;5.532;2022-07-18T07:35:11;21.00;99.90
51557;DHT22;38766;53.194;5.532;2022-07-18T07:37:46;21.10;99.90
51557;DHT22;38766;53.194;5.532;2022-07-18T07:40:13;21.10;99.90
51557;DHT22;38766;53.194;5.532;2022-07-18T07:42:39;21.20;99.90
51557;DHT22;38766;53.194;5.532;2022-07-18T07:45:05;21.30;99.90
51557;DHT22;38766;53.194;5.532;2022-07-18T07:47:31;21.30;99.90
51557;DHT22;38766;53.194;5.532;2022-07-18T07:49:58;21.40;99.90
51557;DHT22;38766;53.194;5.532;2022-07-18T07:52:24;21.50;99.90
51557;DHT22;38766;53.194;5.532;2022-07-18T07:54:50;21.50;99.90
51557;DHT22;38766;53.194;5.532;2022-07-18T07:57:16;21.60;99.90
51557;DHT22;38766;53.194;5.532;2022-07-18T07:59:42;21.60;99.90
51557;DHT22;38766;53.194;5.532;2022-07-18T08:02:08;21.70;99.90
51557;DHT22;38766;53.194;5.532;2022-07-18T08:04:33;21.90;99.90
51557;DHT22;38766;53.194;5.532;2022-07-18T08:06:59;22.00;99.90
51557;DHT22;38766;53.194;5.532;2022-07-18T08:09:25;22.10;99.90
51557;DHT22;38766;53.194;5.532;2022-07-18T08:11:50;22.10;99.90
51557;DHT22;38766;53.194;5.532;2022-07-18T08:14:16;22.20;99.90
51557;DHT22;38766;53.194;5.532;2022-07-18T08:16:42;22.30;99.90
51557;DHT22;38766;53.194;5.532;2022-07-18T08:19:07;22.40;99.90
51557;DHT22;38766;53.194;5.532;2022-07-18T08:21:33;22.40;99.90
51557;DHT22;38766;53.194;5.532;2022-07-18T08:23:59;22.50;99.90
51557;DHT22;38766;53.194;5.532;2022-07-18T08:26:24;22.60;99.90
51557;DHT22;38766;53.194;5.532;2022-07-18T08:28:51;22.70;99.90
51557;DHT22;38766;53.194;5.532;2022-07-18T08:31:18;22.80;99.90
51557;DHT22;38766;53.194;5.532;2022-07-18T08:33:45;23.00;99.90
51557;DHT22;38766;53.194;5.532;2022-07-18T08:36:10;23.00;99.40
51557;DHT22;38766;53.194;5.532;2022-07-18T08:38:36;23.20;98.90
51557;DHT22;38766;53.194;5.532;2022-07-18T08:41:03;23.20;98.60
51557;DHT22;38766;53.194;5.532;2022-07-18T08:43:29;23.40;98.60
51557;DHT22;38766;53.194;5.532;2022-07-18T08:45:57;23.50;97.90
51557;DHT22;38766;53.194;5.532;2022-07-18T08:48:26;23.60;97.40
51557;DHT22;38766;53.194;5.532;2022-07-18T08:50:52;23.70;96.90
51557;DHT22;38766;53.194;5.532;2022-07-18T08:53:19;23.70;96.50
51557;DHT22;38766;53.194;5.532;2022-07-18T08:55:46;23.80;95.20
51557;DHT22;38766;53.194;5.532;2022-07-18T08:58:12;23.90;93.40
51557;DHT22;38766;53.194;5.532;2022-07-18T09:00:40;24.00;92.10
51557;DHT22;38766;53.194;5.532;2022-07-18T09:03:05;24.10;91.30
51557;DHT22;38766;53.194;5.532;2022-07-18T09:05:32;24.20;90.90
51557;DHT22;38766;53.194;5.532;2022-07-18T09:08:15;24.20;90.20
51557;DHT22;38766;53.194;5.532;2022-07-18T09:10:48;24.30;86.10
51557;DHT22;38766;53.194;5.532;2022-07-18T09:13:16;24.40;87.30
51557;DHT22;38766;53.194;5.532;2022-07-18T09:16:07;24.40;87.60
51557;DHT22;38766;53.194;5.532;2022-07-18T09:23:41;24.60;82.40
51557;DHT22;38766;53.194;5.532;2022-07-18T09:26:08;24.70;83.60
51557;DHT22;38766;53.194;5.532;2022-07-18T09:28:54;24.80;83.90
51557;DHT22;38766;53.194;5.532;2022-07-18T09:31:21;24.80;81.40
51557;DHT22;38766;53.194;5.532;2022-07-18T09:33:59;24.90;83.00
51557;DHT22;38766;53.194;5.532;2022-07-18T09:36:25;24.90;83.10
51557;DHT22;38766;53.194;5.532;2022-07-18T09:38:52;24.90;82.40
51557;DHT22;38766;53.194;5.532;2022-07-18T09:41:23;25.00;81.50
51557;DHT22;38766;53.194;5.532;2022-07-18T09:43:49;25.00;79.60
51557;DHT22;38766;53.194;5.532;2022-07-18T09:46:15;25.00;79.90
51557;DHT22;38766;53.194;5.532;2022-07-18T09:48:40;25.00;79.00
51557;DHT22;38766;53.194;5.532;2022-07-18T09:51:07;25.00;78.30
51557;DHT22;38766;53.194;5.532;2022-07-18T09:53:36;24.90;78.50
51557;DHT22;38766;53.194;5.532;2022-07-18T09:56:07;25.10;79.20
51557;DHT22;38766;53.194;5.532;2022-07-18T09:58:36;25.10;78.70
51557;DHT22;38766;53.194;5.532;2022-07-18T10:01:04;25.20;78.20
51557;DHT22;38766;53.194;5.532;2022-07-18T10:03:30;25.20;77.60
51557;DHT22;38766;53.194;5.532;2022-07-18T10:05:58;25.30;77.10
51557;DHT22;38766;53.194;5.532;2022-07-18T10:08:26;25.40;77.10
51557;DHT22;38766;53.194;5.532;2022-07-18T10:10:54;25.50;75.90
51557;DHT22;38766;53.194;5.532;2022-07-18T10:13:21;25.60;75.20
51557;DHT22;38766;53.194;5.532;2022-07-18T10:15:48;25.70;74.90
51557;DHT22;38766;53.194;5.532;2022-07-18T10:18:19;25.80;73.90
51557;DHT22;38766;53.194;5.532;2022-07-18T10:20:54;25.80;72.80
51557;DHT22;38766;53.194;5.532;2022-07-18T10:23:30;25.80;72.60
51557;DHT22;38766;53.194;5.532;2022-07-18T10:26:23;25.90;72.50
51557;DHT22;38766;53.194;5.532;2022-07-18T10:31:29;26.00;72.60
51557;DHT22;38766;53.194;5.532;2022-07-18T10:36:30;26.10;72.60
51557;DHT22;38766;53.194;5.532;2022-07-18T10:39:10;26.20;72.70
51557;DHT22;38766;53.194;5.532;2022-07-18T10:57:34;26.30;70.00
51557;DHT22;38766;53.194;5.532;2022-07-18T11:00:11;26.30;68.90
51557;DHT22;38766;53.194;5.532;2022-07-18T11:02:46;26.30;68.80
51557;DHT22;38766;53.194;5.532;2022-07-18T11:18:23;26.40;69.50
51557;DHT22;38766;53.194;5.532;2022-07-18T11:20:49;26.50;69.30
51557;DHT22;38766;53.194;5.532;2022-07-18T11:23:16;26.50;69.00
51557;DHT22;38766;53.194;5.532;2022-07-18T11:25:42;26.60;69.40
51557;DHT22;38766;53.194;5.532;2022-07-18T11:28:10;26.70;68.30
51557;DHT22;38766;53.194;5.532;2022-07-18T11:30:36;26.70;67.40
51557;DHT22;38766;53.194;5.532;2022-07-18T11:33:03;26.80;66.70
51557;DHT22;38766;53.194;5.532;2022-07-18T11:35:29;26.80;66.80
51557;DHT22;38766;53.194;5.532;2022-07-18T11:37:54;26.80;67.00
51557;DHT22;38766;53.194;5.532;2022-07-18T11:40:22;26.80;66.50
51557;DHT22;38766;53.194;5.532;2022-07-18T11:42:48;26.80;66.50
51557;DHT22;38766;53.194;5.532;2022-07-18T11:45:15;26.80;66.30
51557;DHT22;38766;53.194;5.532;2022-07-18T11:47:51;26.80;66.20
51557;DHT22;38766;53.194;5.532;2022-07-18T11:50:25;26.80;65.70
51557;DHT22;38766;53.194;5.532;2022-07-18T11:52:56;26.80;66.10
51557;DHT22;38766;53.194;5.532;2022-07-18T11:55:35;26.80;65.90
51557;DHT22;38766;53.194;5.532;2022-07-18T11:58:12;26.80;65.90
51557;DHT22;38766;53.194;5.532;2022-07-18T12:00:39;26.80;66.20
51557;DHT22;38766;53.194;5.532;2022-07-18T12:03:14;26.80;65.80
51557;DHT22;38766;53.194;5.532;2022-07-18T12:05:43;26.80;65.70
51557;DHT22;38766;53.194;5.532;2022-07-18T12:11:13;26.80;66.20
51557;DHT22;38766;53.194;5.532;2022-07-18T12:13:50;26.70;68.00
51557;DHT22;38766;53.194;5.532;2022-07-18T12:21:56;26.70;68.00
51557;DHT22;38766;53.194;5.532;2022-07-18T12:32:53;26.60;66.80
51557;DHT22;38766;53.194;5.532;2022-07-18T12:35:29;26.50;66.30
51557;DHT22;38766;53.194;5.532;2022-07-18T12:38:07;26.50;65.80
51557;DHT22;38766;53.194;5.532;2022-07-18T12:43:29;26.50;67.00
51557;DHT22;38766;53.194;5.532;2022-07-18T12:45:57;26.50;67.00
51557;DHT22;38766;53.194;5.532;2022-07-18T12:48:23;26.50;67.50
51557;DHT22;38766;53.194;5.532;2022-07-18T12:53:27;26.60;67.90
51557;DHT22;38766;53.194;5.532;2022-07-18T12:55:53;26.60;68.50
51557;DHT22;38766;53.194;5.532;2022-07-18T12:58:20;26.70;68.30
51557;DHT22;38766;53.194;5.532;2022-07-18T13:00:46;26.70;68.00
51557;DHT22;38766;53.194;5.532;2022-07-18T13:03:12;26.80;67.70
51557;DHT22;38766;53.194;5.532;2022-07-18T13:05:38;26.80;67.70
51557;DHT22;38766;53.194;5.532;2022-07-18T13:08:04;26.90;68.10
51557;DHT22;38766;53.194;5.532;2022-07-18T13:10:32;27.00;67.80
51557;DHT22;38766;53.194;5.532;2022-07-18T13:12:58;27.10;68.00
51557;DHT22;38766;53.194;5.532;2022-07-18T13:15:24;27.20;66.90
51557;DHT22;38766;53.194;5.532;2022-07-18T13:17:49;27.30;65.90
51557;DHT22;38766;53.194;5.532;2022-07-18T13:20:16;27.40;65.20
51557;DHT22;38766;53.194;5.532;2022-07-18T13:22:41;27.40;63.90
51557;DHT22;38766;53.194;5.532;2022-07-18T13:25:08;27.50;63.10
51557;DHT22;38766;53.194;5.532;2022-07-18T13:27:35;27.60;63.00
51557;DHT22;38766;53.194;5.532;2022-07-18T13:30:02;27.60;62.60
51557;DHT22;38766;53.194;5.532;2022-07-18T13:32:28;27.70;63.00
51557;DHT22;38766;53.194;5.532;2022-07-18T13:34:55;27.80;61.70
51557;DHT22;38766;53.194;5.532;2022-07-18T13:37:20;27.90;61.10
51557;DHT22;38766;53.194;5.532;2022-07-18T13:39:46;28.10;59.90
51557;DHT22;38766;53.194;5.532;2022-07-18T13:42:18;28.10;59.30
51557;DHT22;38766;53.194;5.532;2022-07-18T13:44:43;28.20;58.30
51557;DHT22;38766;53.194;5.532;2022-07-18T13:47:13;28.20;58.10
51557;DHT22;38766;53.194;5.532;2022-07-18T13:49:39;28.20;58.00
51557;DHT22;38766;53.194;5.532;2022-07-18T13:52:05;28.20;57.90
51557;DHT22;38766;53.194;5.532;2022-07-18T13:54:31;28.30;57.20
51557;DHT22;38766;53.194;5.532;2022-07-18T13:56:56;28.30;57.00
51557;DHT22;38766;53.194;5.532;2022-07-18T13:59:22;28.30;56.90
51557;DHT22;38766;53.194;5.532;2022-07-18T14:01:48;28.40;57.10
51557;DHT22;38766;53.194;5.532;2022-07-18T14:04:15;28.40;57.00
51557;DHT22;38766;53.194;5.532;2022-07-18T14:06:41;28.50;57.00
51557;DHT22;38766;53.194;5.532;2022-07-18T14:09:07;28.50;56.70
51557;DHT22;38766;53.194;5.532;2022-07-18T14:11:36;28.50;57.10
51557;DHT22;38766;53.194;5.532;2022-07-18T14:14:02;28.50;56.90
51557;DHT22;38766;53.194;5.532;2022-07-18T14:16:29;28.50;57.10
51557;DHT22;38766;53.194;5.532;2022-07-18T14:18:55;28.60;57.20
51557;DHT22;38766;53.194;5.532;2022-07-18T14:21:20;28.60;57.30
51557;DHT22;38766;53.194;5.532;2022-07-18T14:23:46;28.70;57.30
51557;DHT22;38766;53.194;5.532;2022-07-18T14:26:12;28.60;57.30
51557;DHT22;38766;53.194;5.532;2022-07-18T14:28:37;28.70;57.70
51557;DHT22;38766;53.194;5.532;2022-07-18T14:31:03;28.60;57.50
51557;DHT22;38766;53.194;5.532;2022-07-18T14:33:29;28.60;57.20
51557;DHT22;38766;53.194;5.532;2022-07-18T14:35:54;28.60;57.00
51557;DHT22;38766;53.194;5.532;2022-07-18T14:38:20;28.50;57.10
51557;DHT22;38766;53.194;5.532;2022-07-18T14:40:46;28.40;57.10
51557;DHT22;38766;53.194;5.532;2022-07-18T14:43:11;28.40;57.20
51557;DHT22;38766;53.194;5.532;2022-07-18T14:45:37;28.30;57.10
51557;DHT22;38766;53.194;5.532;2022-07-18T14:48:03;28.20;57.30
51557;DHT22;38766;53.194;5.532;2022-07-18T14:50:29;28.20;57.60
51557;DHT22;38766;53.194;5.532;2022-07-18T14:52:54;28.30;58.00
51557;DHT22;38766;53.194;5.532;2022-07-18T14:55:20;28.30;58.30
51557;DHT22;38766;53.194;5.532;2022-07-18T14:57:45;28.40;58.40
51557;DHT22;38766;53.194;5.532;2022-07-18T15:00:11;28.50;59.40
51557;DHT22;38766;53.194;5.532;2022-07-18T15:02:38;28.50;58.90
51557;DHT22;38766;53.194;5.532;2022-07-18T15:05:04;28.60;59.20
51557;DHT22;38766;53.194;5.532;2022-07-18T15:07:30;28.60;59.10
51557;DHT22;38766;53.194;5.532;2022-07-18T15:09:56;28.60;59.60
51557;DHT22;38766;53.194;5.532;2022-07-18T15:12:21;28.60;59.60
51557;DHT22;38766;53.194;5.532;2022-07-18T15:14:47;28.60;59.40
51557;DHT22;38766;53.194;5.532;2022-07-18T15:17:13;28.60;59.30
51557;DHT22;38766;53.194;5.532;2022-07-18T15:19:38;28.60;59.70
51557;DHT22;38766;53.194;5.532;2022-07-18T15:22:04;28.60;60.30
51557;DHT22;38766;53.194;5.532;2022-07-18T15:24:33;28.60;60.10
51557;DHT22;38766;53.194;5.532;2022-07-18T15:27:00;28.70;60.20
51557;DHT22;38766;53.194;5.532;2022-07-18T15:29:26;28.70;60.00
51557;DHT22;38766;53.194;5.532;2022-07-18T15:31:52;28.80;60.20
51557;DHT22;38766;53.194;5.532;2022-07-18T15:34:17;28.80;60.40
51557;DHT22;38766;53.194;5.532;2022-07-18T15:36:43;28.80;60.50
51557;DHT22;38766;53.194;5.532;2022-07-18T15:39:08;28.90;59.80
51557;DHT22;38766;53.194;5.532;2022-07-18T15:41:34;28.90;59.40
51557;DHT22;38766;53.194;5.532;2022-07-18T15:44:00;28.90;59.40
51557;DHT22;38766;53.194;5.532;2022-07-18T15:46:25;28.90;59.00
51557;DHT22;38766;53.194;5.532;2022-07-18T15:48:51;28.90;58.40
51557;DHT22;38766;53.194;5.532;2022-07-18T15:51:17;29.00;57.90
51557;DHT22;38766;53.194;5.532;2022-07-18T15:53:43;29.00;57.30
51557;DHT22;38766;53.194;5.532;2022-07-18T15:56:09;29.00;57.30
51557;DHT22;38766;53.194;5.532;2022-07-18T15:58:35;29.00;57.40
51557;DHT22;38766;53.194;5.532;2022-07-18T16:01:01;29.00;57.90
51557;DHT22;38766;53.194;5.532;2022-07-18T16:03:27;29.00;58.10
51557;DHT22;38766;53.194;5.532;2022-07-18T16:05:53;29.00;57.80
51557;DHT22;38766;53.194;5.532;2022-07-18T16:08:23;29.00;57.90
51557;DHT22;38766;53.194;5.532;2022-07-18T16:10:49;29.00;58.00
51557;DHT22;38766;53.194;5.532;2022-07-18T16:13:15;29.00;58.20
51557;DHT22;38766;53.194;5.532;2022-07-18T16:15:41;29.00;58.00
51557;DHT22;38766;53.194;5.532;2022-07-18T16:18:09;29.00;57.80
51557;DHT22;38766;53.194;5.532;2022-07-18T16:20:34;29.10;57.90
51557;DHT22;38766;53.194;5.532;2022-07-18T16:23:01;29.10;58.00
51557;DHT22;38766;53.194;5.532;2022-07-18T16:25:26;29.00;58.20
51557;DHT22;38766;53.194;5.532;2022-07-18T16:27:52;29.10;57.70
51557;DHT22;38766;53.194;5.532;2022-07-18T16:30:18;29.00;57.70